Time;durP1;ratioP1;P1;durP2;ratioP2;P2;SDS_P1;SDS_P2;PMS_P1;PMS_P2;Temp;Humidity;BMP_temperature;BMP_pressure;BME280_temperature;BME280_humidity;BME280_pressure;Samples;Min_cycle;Max_cycle;Signal;HPM_P1;HPM_P2
2020/12/17 00:02:14;;;;;;;12.20;7.32;;;4.70;83.10;;;;;;4996307;28;20061;-83
2020/12/17 00:04:40;;;;;;;10.65;6.93;;;4.70;83.00;;;;;;5013756;28;20069;-84
2020/12/17 00:07:06;;;;;;;10.23;7.10;;;4.70;83.00;;;;;;5013249;28;20512;-84
2020/12/17 00:09:31;;;;;;;11.18;6.95;;;4.70;83.20;;;;;;5013321;28;20116;-86
2020/12/17 00:11:57;;;;;;;11.65;7.38;;;4.70;83.30;;;;;;5013472;28;20034;-83
2020/12/17 00:14:23;;;;;;;11.02;7.15;;;4.70;83.30;;;;;;4995901;28;20497;-85
2020/12/17 00:16:49;;;;;;;11.50;7.00;;;4.70;83.10;;;;;;5017552;28;20052;-85
2020/12/17 00:19:16;;;;;;;11.70;7.25;;;4.70;83.00;;;;;;5017741;28;20081;-83
2020/12/17 00:21:42;;;;;;;11.23;7.05;;;4.70;83.20;;;;;;5013730;28;20092;-83
2020/12/17 00:24:08;;;;;;;10.70;7.75;;;4.70;83.30;;;;;;5013788;28;20037;-83
2020/12/17 00:26:34;;;;;;;8.38;6.18;;;4.80;83.20;;;;;;5013463;28;20493;-84
2020/12/17 00:28:59;;;;;;;11.77;7.07;;;4.70;83.20;;;;;;5013345;28;20103;-85
2020/12/17 00:31:25;;;;;;;9.38;6.40;;;4.80;83.30;;;;;;4996108;28;20461;-85
2020/12/17 00:33:51;;;;;;;9.07;6.38;;;4.80;83.20;;;;;;5013297;28;20396;-84
2020/12/17 00:36:23;;;;;;;11.30;7.63;;;4.70;83.20;;;;;;5013180;28;20058;-84
2020/12/17 00:38:49;;;;;;;11.25;7.40;;;4.80;83.10;;;;;;5013349;28;20042;-84
2020/12/17 00:41:16;;;;;;;12.77;8.30;;;4.90;83.00;;;;;;4995431;28;20033;-84
2020/12/17 00:43:43;;;;;;;10.63;6.78;;;4.80;83.00;;;;;;4995255;28;20046;-84
2020/12/17 00:46:13;;;;;;;10.18;6.47;;;4.80;83.00;;;;;;5013370;28;20107;-82
2020/12/17 00:48:39;;;;;;;9.77;6.75;;;4.90;83.00;;;;;;5016366;28;20069;-84
2020/12/17 00:51:05;;;;;;;9.82;7.15;;;4.80;83.00;;;;;;4999394;28;20401;-85
2020/12/17 00:53:31;;;;;;;9.98;6.55;;;4.80;83.20;;;;;;5000045;28;20045;-85
2020/12/17 00:55:57;;;;;;;10.77;6.65;;;4.80;83.30;;;;;;5017004;28;20029;-83
2020/12/17 00:58:23;;;;;;;10.10;7.00;;;4.80;83.50;;;;;;4999025;28;20044;-85
2020/12/17 01:00:49;;;;;;;10.48;6.47;;;4.80;83.50;;;;;;5016541;28;20041;-85
2020/12/17 01:03:16;;;;;;;8.65;6.20;;;4.80;83.60;;;;;;4999214;28;20404;-85
2020/12/17 01:05:42;;;;;;;10.75;6.97;;;4.80;83.60;;;;;;5016466;28;20042;-85
2020/12/17 01:08:09;;;;;;;10.25;6.85;;;4.80;83.70;;;;;;5016378;28;20409;-85
2020/12/17 01:10:35;;;;;;;9.63;6.22;;;4.80;83.60;;;;;;4998575;28;20088;-85
2020/12/17 01:13:02;;;;;;;9.30;6.30;;;4.70;83.90;;;;;;5016570;28;20034;-86
2020/12/17 01:15:27;;;;;;;9.48;5.90;;;4.70;84.10;;;;;;5016617;28;20084;-84
2020/12/17 01:17:53;;;;;;;9.32;6.00;;;4.70;83.90;;;;;;5016279;28;20080;-84
2020/12/17 01:20:19;;;;;;;8.70;5.68;;;4.80;84.00;;;;;;5017053;28;20040;-85
2020/12/17 01:22:45;;;;;;;8.52;5.97;;;4.70;84.10;;;;;;5016078;28;20040;-85
2020/12/17 01:25:11;;;;;;;8.27;5.90;;;4.70;84.20;;;;;;4998532;28;20034;-84
2020/12/17 01:27:37;;;;;;;8.82;5.72;;;4.80;84.00;;;;;;5016090;28;20045;-84
2020/12/17 01:30:04;;;;;;;8.80;6.05;;;4.80;84.30;;;;;;5023483;28;20037;-84
2020/12/17 01:32:30;;;;;;;9.02;6.35;;;4.70;84.30;;;;;;5016445;28;20107;-84
2020/12/17 01:34:56;;;;;;;9.07;5.50;;;4.70;84.60;;;;;;5016123;28;20042;-85
2020/12/17 01:37:21;;;;;;;8.63;6.18;;;4.70;84.40;;;;;;5015398;28;20054;-85
2020/12/17 01:39:48;;;;;;;8.40;5.82;;;4.70;84.30;;;;;;5015908;28;20061;-85
2020/12/17 01:42:13;;;;;;;8.13;5.80;;;4.70;84.30;;;;;;4998174;28;20405;-84
2020/12/17 01:44:40;;;;;;;9.18;6.28;;;4.80;84.40;;;;;;4982657;28;20034;-86
2020/12/17 01:47:06;;;;;;;9.88;5.88;;;4.80;84.20;;;;;;5015637;28;20489;-84
2020/12/17 01:49:33;;;;;;;8.48;5.65;;;4.80;84.40;;;;;;5015672;28;20124;-84
2020/12/17 01:52:00;;;;;;;8.38;5.60;;;4.80;84.10;;;;;;5015843;28;20044;-84
2020/12/17 01:54:26;;;;;;;7.68;5.20;;;4.90;84.10;;;;;;4997796;28;20111;-83
2020/12/17 01:56:59;;;;;;;7.93;5.00;;;4.80;84.30;;;;;;4997993;28;20477;-84
2020/12/17 01:59:27;;;;;;;7.78;5.45;;;4.80;84.20;;;;;;5015580;28;20070;-84
2020/12/17 02:01:54;;;;;;;7.43;4.93;;;4.80;84.20;;;;;;5016146;28;20046;-84
2020/12/17 02:04:23;;;;;;;8.20;5.03;;;4.80;84.20;;;;;;4998073;28;20045;-85
2020/12/17 02:06:50;;;;;;;8.10;4.70;;;4.80;84.20;;;;;;5015372;28;20038;-85
2020/12/17 02:09:19;;;;;;;7.30;4.72;;;4.80;84.20;;;;;;4997719;28;20037;-86
2020/12/17 02:11:57;;;;;;;7.13;4.97;;;4.80;84.50;;;;;;4997783;28;20038;-87
2020/12/17 02:14:24;;;;;;;7.53;5.38;;;4.80;85.00;;;;;;5015378;28;20392;-85
2020/12/17 02:16:50;;;;;;;6.90;4.85;;;4.80;84.30;;;;;;5015550;28;20037;-85
2020/12/17 02:19:17;;;;;;;6.07;4.70;;;4.80;84.40;;;;;;4997745;28;20030;-85
2020/12/17 02:21:43;;;;;;;6.30;4.60;;;4.80;84.30;;;;;;5014932;28;20092;-86
2020/12/17 02:24:09;;;;;;;7.22;4.70;;;4.80;84.20;;;;;;4997349;28;20046;-86
2020/12/17 02:26:35;;;;;;;6.20;4.25;;;4.90;84.40;;;;;;5014948;28;20042;-85
2020/12/17 02:29:01;;;;;;;7.07;4.57;;;4.80;84.50;;;;;;4997600;28;20034;-84
2020/12/17 02:31:28;;;;;;;5.20;4.18;;;4.90;84.30;;;;;;5015239;28;20144;-85
2020/12/17 02:33:54;;;;;;;6.85;4.40;;;4.80;84.40;;;;;;4997494;28;20396;-85
2020/12/17 02:36:20;;;;;;;8.13;4.68;;;4.80;84.60;;;;;;4980876;28;20062;-84
2020/12/17 02:38:47;;;;;;;6.63;4.57;;;4.90;84.30;;;;;;4996818;28;20125;-84
2020/12/17 02:41:13;;;;;;;6.22;4.30;;;4.90;84.10;;;;;;5000854;28;20087;-80
2020/12/17 02:43:40;;;;;;;5.85;4.13;;;4.90;84.10;;;;;;5017047;28;20489;-79
2020/12/17 02:46:06;;;;;;;7.60;4.38;;;4.90;84.00;;;;;;5014640;28;20563;-79
2020/12/17 02:48:32;;;;;;;6.40;4.50;;;5.00;83.90;;;;;;5014913;28;20042;-88
2020/12/17 02:51:04;;;;;;;4.75;3.83;;;5.00;83.80;;;;;;5014182;28;20487;-79
2020/12/17 02:53:30;;;;;;;4.35;3.47;;;5.00;83.80;;;;;;5013563;28;20033;-79
2020/12/17 02:55:56;;;;;;;5.03;4.22;;;5.00;83.70;;;;;;4996681;28;20397;-80
2020/12/17 02:58:22;;;;;;;5.00;3.90;;;5.00;83.70;;;;;;5014080;28;20041;-79
2020/12/17 03:00:47;;;;;;;5.63;3.95;;;5.00;83.70;;;;;;5014034;28;20041;-79
2020/12/17 03:03:13;;;;;;;5.05;3.72;;;5.00;83.70;;;;;;4996732;28;20545;-81
2020/12/17 03:05:40;;;;;;;5.15;3.97;;;5.00;83.60;;;;;;4996342;28;20552;-80
2020/12/17 03:08:06;;;;;;;4.75;3.47;;;5.00;83.60;;;;;;4996443;28;20030;-81
2020/12/17 03:10:32;;;;;;;5.70;3.88;;;5.00;83.50;;;;;;5013619;28;20049;-80
2020/12/17 03:12:57;;;;;;;3.85;3.30;;;5.00;83.60;;;;;;4980135;28;20547;-80
2020/12/17 03:15:23;;;;;;;6.65;4.22;;;5.00;83.60;;;;;;4996627;28;20045;-79
2020/12/17 03:17:49;;;;;;;6.22;4.20;;;5.00;83.50;;;;;;5013609;28;20400;-80
2020/12/17 03:20:16;;;;;;;4.97;3.72;;;5.00;83.70;;;;;;4996179;28;20084;-82
2020/12/17 03:22:42;;;;;;;4.70;3.60;;;5.00;83.70;;;;;;4996193;28;20038;-84
2020/12/17 03:25:09;;;;;;;4.88;3.72;;;5.00;83.60;;;;;;4996609;28;20065;-82
2020/12/17 03:27:36;;;;;;;5.07;4.05;;;5.00;83.70;;;;;;4996327;28;20044;-78
2020/12/17 03:30:06;;;;;;;3.88;3.45;;;5.00;83.80;;;;;;5013590;28;20034;-79
2020/12/17 03:32:32;;;;;;;6.43;4.57;;;5.00;83.80;;;;;;4996542;28;20060;-78
2020/12/17 03:34:58;;;;;;;8.05;5.28;;;5.10;83.80;;;;;;5010555;28;20512;-79
2020/12/17 03:37:24;;;;;;;6.80;4.70;;;5.10;83.80;;;;;;5011051;28;20049;-77
2020/12/17 03:39:50;;;;;;;6.78;5.03;;;5.10;84.00;;;;;;5012922;28;20037;-78
2020/12/17 03:42:17;;;;;;;6.80;4.55;;;5.10;83.90;;;;;;5013051;28;20591;-78
2020/12/17 03:44:44;;;;;;;6.13;4.35;;;5.00;83.90;;;;;;4994551;28;20038;-78
2020/12/17 03:47:10;;;;;;;6.20;3.85;;;5.00;83.90;;;;;;4994030;28;20048;-77
2020/12/17 03:49:36;;;;;;;5.78;4.28;;;5.10;84.00;;;;;;4994010;28;20392;-79
2020/12/17 03:52:02;;;;;;;6.40;4.50;;;5.10;84.10;;;;;;5011001;28;20038;-82
2020/12/17 03:54:28;;;;;;;7.20;4.53;;;5.10;84.10;;;;;;4997117;28;20124;-79
2020/12/17 03:56:54;;;;;;;5.90;4.07;;;5.10;84.10;;;;;;4994637;28;20501;-82
2020/12/17 03:59:19;;;;;;;6.35;4.28;;;5.10;84.10;;;;;;5011731;28;20045;-80
2020/12/17 04:01:45;;;;;;;7.57;4.90;;;5.10;84.20;;;;;;5012136;28;20037;-80
2020/12/17 04:04:11;;;;;;;5.47;4.25;;;5.10;84.20;;;;;;5011903;28;20042;-80
2020/12/17 04:06:37;;;;;;;5.70;4.18;;;5.10;84.20;;;;;;4993810;28;20038;-78
2020/12/17 04:09:03;;;;;;;6.28;4.65;;;5.10;84.40;;;;;;5011283;28;20056;-78
2020/12/17 04:11:29;;;;;;;5.07;3.88;;;5.10;84.40;;;;;;5012832;28;20564;-78
2020/12/17 04:13:55;;;;;;;9.18;4.90;;;5.10;84.30;;;;;;5012646;28;20046;-79
2020/12/17 04:16:21;;;;;;;6.60;4.22;;;5.10;84.40;;;;;;4994301;28;20042;-79
2020/12/17 04:18:47;;;;;;;7.75;4.50;;;5.10;84.30;;;;;;4995704;28;20452;-79
2020/12/17 04:21:13;;;;;;;7.45;4.53;;;5.10;84.50;;;;;;5013006;28;20033;-78
2020/12/17 04:23:39;;;;;;;7.28;4.60;;;5.10;84.40;;;;;;4999735;28;20030;-80
2020/12/17 04:26:10;;;;;;;6.95;4.30;;;5.10;84.50;;;;;;5015718;28;20037;-81
2020/12/17 04:28:35;;;;;;;5.47;4.22;;;5.10;84.40;;;;;;5031656;28;20561;-81
2020/12/17 04:31:01;;;;;;;5.82;4.07;;;5.10;84.50;;;;;;4999547;28;20128;-83
2020/12/17 04:33:28;;;;;;;6.72;4.65;;;5.10;84.70;;;;;;5016929;28;20374;-80
2020/12/17 04:35:54;;;;;;;7.70;4.55;;;5.10;84.70;;;;;;5016507;28;20129;-79
2020/12/17 04:38:20;;;;;;;6.57;4.13;;;5.10;84.80;;;;;;5016826;28;20571;-85
2020/12/17 04:40:46;;;;;;;5.90;4.18;;;5.20;84.70;;;;;;5016587;28;20405;-85
2020/12/17 04:43:12;;;;;;;7.70;4.78;;;5.10;84.70;;;;;;4981868;28;20030;-85
2020/12/17 04:45:39;;;;;;;6.35;4.47;;;5.20;84.60;;;;;;4988400;28;20524;-86
2020/12/17 04:48:06;;;;;;;5.22;3.65;;;5.20;84.60;;;;;;5016510;28;20046;-84
2020/12/17 04:50:33;;;;;;;6.50;4.50;;;5.20;84.80;;;;;;5016833;28;20034;-87
2020/12/17 04:53:03;;;;;;;5.63;3.85;;;5.10;84.70;;;;;;4999631;28;20400;-87
2020/12/17 04:55:50;;;;;;;7.30;4.07;;;5.20;84.80;;;;;;5000087;28;20041;-88
2020/12/17 04:58:34;;;;;;;;;;;;;;;;;;;;;
2020/12/17 05:01:14;;;;;;;6.60;4.18;;;5.20;84.80;;;;;;5003571;28;20034;-93
2020/12/17 05:03:53;;;;;;;6.45;4.43;;;5.20;85.10;;;;;;5017624;28;20042;-87
2020/12/17 05:06:22;;;;;;;7.13;4.45;;;5.20;85.00;;;;;;5005766;28;20033;-84
2020/12/17 05:08:57;;;;;;;6.72;4.45;;;5.20;85.00;;;;;;4998607;28;20037;-83
2020/12/17 05:11:33;;;;;;;;;;;;;;;;;;;;;
2020/12/17 05:14:03;;;;;;;6.65;4.28;;;5.20;85.20;;;;;;5016268;28;20096;-81
2020/12/17 05:16:29;;;;;;;5.45;3.92;;;5.20;85.10;;;;;;5016612;28;20042;-82
2020/12/17 05:18:55;;;;;;;6.55;4.53;;;5.30;85.20;;;;;;5016250;28;20405;-81
2020/12/17 05:21:21;;;;;;;8.20;4.32;;;5.20;85.60;;;;;;5016283;28;20056;-84
2020/12/17 05:23:49;;;;;;;7.50;4.40;;;5.20;85.50;;;;;;5015852;28;20049;-85
2020/12/17 05:26:15;;;;;;;5.07;4.10;;;5.20;85.60;;;;;;4999120;28;20417;-87
2020/12/17 05:28:41;;;;;;;5.80;3.75;;;5.20;85.50;;;;;;5016220;28;20137;-86
2020/12/17 05:31:19;;;;;;;6.95;4.25;;;5.30;85.60;;;;;;5017546;28;20038;-86
2020/12/17 05:33:45;;;;;;;8.55;4.47;;;5.20;86.00;;;;;;5015853;28;20034;-85
2020/12/17 05:36:11;;;;;;;7.22;4.95;;;5.20;85.80;;;;;;5017311;28;20115;-89
2020/12/17 05:38:37;;;;;;;8.80;4.57;;;5.20;85.80;;;;;;5017287;28;20388;-89
2020/12/17 05:41:06;;;;;;;9.35;4.70;;;5.20;85.80;;;;;;5017157;28;20034;-88
2020/12/17 05:43:32;;;;;;;6.57;4.65;;;5.20;86.00;;;;;;5016337;28;20029;-88
2020/12/17 05:45:58;;;;;;;8.32;3.75;;;5.20;86.00;;;;;;5016112;28;20048;-88
2020/12/17 05:48:24;;;;;;;9.50;4.72;;;5.10;86.40;;;;;;4998686;28;20030;-87
2020/12/17 05:50:57;;;;;;;6.15;4.30;;;5.10;86.50;;;;;;5017564;28;20041;-87
2020/12/17 05:53:25;;;;;;;6.30;4.28;;;5.00;86.70;;;;;;5016011;28;20178;-88
2020/12/17 05:56:00;;;;;;;8.73;5.13;;;5.10;87.00;;;;;;4982555;28;20053;-87
2020/12/17 05:58:44;;;;;;;6.73;4.60;;;5.10;87.00;;;;;;5016315;28;20049;-87
2020/12/17 06:01:12;;;;;;;6.93;4.45;;;5.00;87.20;;;;;;5015531;28;20363;-88
2020/12/17 06:03:42;;;;;;;7.22;4.68;;;5.00;87.30;;;;;;4982798;28;20052;-88
2020/12/17 06:06:09;;;;;;;6.80;4.25;;;5.10;87.30;;;;;;5017686;28;20038;-83
2020/12/17 06:08:40;;;;;;;8.80;4.82;;;5.10;87.90;;;;;;5015117;28;20033;-82
2020/12/17 06:11:12;;;;;;;6.80;4.85;;;5.10;90.00;;;;;;4998402;28;20088;-81
2020/12/17 06:13:43;;;;;;;8.93;4.68;;;5.20;90.10;;;;;;4998018;28;20501;-84
2020/12/17 06:16:10;;;;;;;7.05;4.82;;;5.20;90.20;;;;;;4999376;28;20038;-89
2020/12/17 06:18:37;;;;;;;8.02;4.43;;;5.20;89.50;;;;;;5004755;28;20133;-88
2020/12/17 06:21:10;;;;;;;8.07;4.85;;;5.10;89.20;;;;;;5021426;28;20120;-86
2020/12/17 06:23:37;;;;;;;6.43;4.80;;;5.20;88.90;;;;;;5016925;28;20083;-88
2020/12/17 06:26:07;;;;;;;7.63;4.32;;;5.20;88.80;;;;;;5023351;28;20045;-93
2020/12/17 06:28:49;;;;;;;7.75;4.80;;;5.20;88.70;;;;;;5020994;28;20042;-94
2020/12/17 06:31:17;;;;;;;7.43;4.90;;;5.20;88.60;;;;;;5021895;28;20033;-89
2020/12/17 06:33:44;;;;;;;6.55;4.43;;;5.20;88.80;;;;;;5015791;28;20129;-81
2020/12/17 06:36:40;;;;;;;5.97;4.22;;;5.20;88.80;;;;;;5014574;28;20140;-87
2020/12/17 06:39:07;;;;;;;6.57;4.63;;;5.10;88.80;;;;;;5012456;28;20060;-87
2020/12/17 06:41:33;;;;;;;8.40;4.97;;;5.20;88.80;;;;;;5014697;28;20042;-88
2020/12/17 06:44:00;;;;;;;5.13;3.80;;;5.20;88.80;;;;;;5015238;28;20038;-86
2020/12/17 06:46:38;;;;;;;6.35;3.90;;;5.20;88.80;;;;;;4998594;28;20046;-86
2020/12/17 06:49:07;;;;;;;6.72;4.10;;;5.20;88.80;;;;;;5015718;28;20042;-88
2020/12/17 06:51:40;;;;;;;6.10;4.10;;;5.20;88.60;;;;;;5014798;28;20203;-85
2020/12/17 06:54:08;;;;;;;9.10;3.78;;;5.30;88.60;;;;;;4997375;28;20052;-82
2020/12/17 06:56:40;;;;;;;7.57;4.10;;;5.20;88.80;;;;;;5014997;28;20057;-83
2020/12/17 06:59:17;;;;;;;6.25;3.90;;;5.30;88.60;;;;;;5014365;28;20142;-86
2020/12/17 07:01:44;;;;;;;6.90;4.00;;;5.30;88.60;;;;;;5014245;28;20404;-85
2020/12/17 07:04:11;;;;;;;5.43;3.70;;;5.30;88.60;;;;;;5013272;28;20041;-85
2020/12/17 07:06:37;;;;;;;5.13;3.90;;;5.20;88.60;;;;;;4995469;28;20030;-82
2020/12/17 07:09:04;;;;;;;4.32;3.75;;;5.30;88.50;;;;;;5013378;28;20149;-84
2020/12/17 07:11:44;;;;;;;5.03;3.70;;;5.30;88.40;;;;;;5014365;28;20033;-84
2020/12/17 07:14:26;;;;;;;5.85;3.85;;;5.30;88.40;;;;;;5013866;28;20034;-84
2020/12/17 07:16:59;;;;;;;5.75;3.95;;;5.30;88.50;;;;;;5013662;28;20115;-83
2020/12/17 07:19:27;;;;;;;5.97;4.63;;;5.30;88.40;;;;;;5013608;28;20095;-83
2020/12/17 07:22:04;;;;;;;5.85;3.72;;;5.30;88.30;;;;;;5013628;28;20127;-84
2020/12/17 07:24:36;;;;;;;4.47;3.70;;;5.30;88.30;;;;;;5014025;28;20042;-84
2020/12/17 07:27:07;;;;;;;9.13;3.80;;;5.30;88.50;;;;;;5013827;28;20048;-82
2020/12/17 07:29:40;;;;;;;4.95;3.35;;;5.30;88.60;;;;;;5019943;28;20048;-84
2020/12/17 07:32:48;;;;;;;3.67;3.17;;;5.30;88.50;;;;;;5015470;28;20044;-87
2020/12/17 07:35:23;;;;;;;5.72;3.70;;;5.40;88.60;;;;;;5002188;28;20600;-91
2020/12/17 07:37:57;;;;;;;4.18;3.13;;;5.40;88.40;;;;;;4999395;28;20184;-88
2020/12/17 07:40:39;;;;;;;6.53;3.58;;;5.40;88.60;;;;;;4995868;28;20135;-92
2020/12/17 07:43:08;;;;;;;4.30;3.33;;;5.40;88.60;;;;;;4997126;28;20124;-85
2020/12/17 07:45:44;;;;;;;4.75;3.15;;;5.40;88.60;;;;;;4980709;28;20180;-88
2020/12/17 07:48:38;;;;;;;3.75;2.97;;;5.40;88.60;;;;;;5013686;28;20443;-87
2020/12/17 07:51:04;;;;;;;3.63;3.10;;;5.40;88.60;;;;;;5021181;28;20041;-96
2020/12/17 07:53:31;;;;;;;4.28;3.47;;;5.50;88.70;;;;;;5020227;28;20065;-89
2020/12/17 07:55:57;;;;;;;7.45;3.47;;;5.40;88.80;;;;;;4980522;28;20034;-90
2020/12/17 07:58:22;;;;;;;4.13;2.97;;;5.40;88.80;;;;;;5024129;28;20037;-91
2020/12/17 08:00:51;;;;;;;4.35;3.47;;;5.40;89.00;;;;;;5019529;28;20037;-88
2020/12/17 08:03:18;;;;;;;5.13;3.38;;;5.40;89.00;;;;;;4999495;28;20037;-84
2020/12/17 08:05:45;;;;;;;6.43;3.20;;;5.40;88.90;;;;;;5017051;28;20044;-82
2020/12/17 08:08:18;;;;;;;3.78;3.15;;;5.50;89.00;;;;;;5016249;28;20074;-84
2020/12/17 08:10:46;;;;;;;5.45;3.28;;;5.50;89.00;;;;;;4982960;28;20585;-85
2020/12/17 08:13:12;;;;;;;3.03;2.60;;;5.50;89.30;;;;;;5016214;28;20030;-84
2020/12/17 08:15:38;;;;;;;4.60;3.20;;;5.40;89.30;;;;;;5016749;28;20050;-86
2020/12/17 08:18:04;;;;;;;3.55;2.88;;;5.40;89.40;;;;;;4998997;28;20041;-85
2020/12/17 08:20:32;;;;;;;3.67;2.78;;;5.40;89.60;;;;;;4998518;28;20452;-83
2020/12/17 08:22:58;;;;;;;3.40;2.35;;;5.50;89.60;;;;;;4999736;28;20033;-87
2020/12/17 08:25:26;;;;;;;4.85;3.25;;;5.40;90.10;;;;;;5017565;28;20040;-84
2020/12/17 08:27:52;;;;;;;3.28;2.83;;;5.40;89.90;;;;;;5017074;28;20049;-84
2020/12/17 08:30:19;;;;;;;3.53;2.58;;;5.40;90.00;;;;;;4999908;28;20068;-82
2020/12/17 08:32:53;;;;;;;4.00;2.50;;;5.40;90.00;;;;;;5000296;28;20084;-82
2020/12/17 08:35:22;;;;;;;3.15;2.58;;;5.40;90.20;;;;;;5018781;28;20030;-84
2020/12/17 08:37:53;;;;;;;3.22;2.72;;;5.40;90.10;;;;;;5022921;28;20061;-83
2020/12/17 08:40:29;;;;;;;4.35;2.70;;;5.40;90.10;;;;;;5004755;28;20056;-81
2020/12/17 08:43:12;;;;;;;4.18;2.72;;;5.40;90.10;;;;;;5008658;28;20120;-80
2020/12/17 08:45:40;;;;;;;7.00;2.92;;;5.40;90.00;;;;;;5037817;28;20089;-83
2020/12/17 08:48:14;;;;;;;4.65;2.45;;;5.40;90.00;;;;;;5037618;28;20052;-83
2020/12/17 08:50:40;;;;;;;4.80;2.72;;;5.50;90.00;;;;;;5020447;28;20061;-82
2020/12/17 08:53:30;;;;;;;4.38;2.75;;;5.50;90.00;;;;;;5037962;28;20068;-81
2020/12/17 08:56:04;;;;;;;2.88;2.60;;;5.50;90.00;;;;;;5019882;28;20041;-82
2020/12/17 08:58:30;;;;;;;5.20;3.25;;;5.50;90.00;;;;;;5037224;28;20033;-83
2020/12/17 09:00:55;;;;;;;5.30;2.58;;;5.50;90.00;;;;;;5002659;28;20065;-82
2020/12/17 09:03:23;;;;;;;4.10;2.78;;;5.50;90.00;;;;;;5033612;28;20038;-82
2020/12/17 09:06:05;;;;;;;2.97;2.28;;;5.50;90.00;;;;;;5012677;28;20030;-82
2020/12/17 09:08:31;;;;;;;4.20;2.38;;;5.50;89.90;;;;;;5022873;28;20417;-80
2020/12/17 09:10:57;;;;;;;2.90;2.10;;;5.60;90.00;;;;;;4998952;28;20025;-82
2020/12/17 09:13:23;;;;;;;2.20;1.98;;;5.60;90.00;;;;;;5016780;28;20149;-82
2020/12/17 09:16:00;;;;;;;3.13;2.17;;;5.60;90.00;;;;;;5016124;28;20093;-80
2020/12/17 09:18:28;;;;;;;6.72;2.55;;;5.60;89.90;;;;;;5015971;28;20100;-87
2020/12/17 09:21:11;;;;;;;4.10;2.28;;;5.70;89.80;;;;;;5016123;28;20102;-86
2020/12/17 09:23:40;;;;;;;3.03;2.22;;;5.60;89.60;;;;;;4997725;28;20033;-84
2020/12/17 09:26:15;;;;;;;3.67;2.50;;;5.70;89.50;;;;;;5016137;28;20042;-84
2020/12/17 09:28:52;;;;;;;6.17;2.50;;;5.70;89.40;;;;;;5016886;28;20050;-83
2020/12/17 09:31:25;;;;;;;4.65;2.40;;;5.70;89.70;;;;;;5017409;28;20307;-85
2020/12/17 09:34:21;;;;;;;3.75;2.10;;;5.70;89.60;;;;;;4998721;28;20041;-86
2020/12/17 09:36:58;;;;;;;4.30;1.90;;;5.80;89.20;;;;;;5015603;28;20093;-88
2020/12/17 09:39:24;;;;;;;2.38;2.03;;;5.80;88.90;;;;;;4998604;28;20062;-88
2020/12/17 09:41:56;;;;;;;4.85;1.88;;;5.90;88.80;;;;;;4998411;28;20125;-88
2020/12/17 09:44:34;;;;;;;2.95;1.88;;;5.90;88.70;;;;;;4998866;28;20468;-87
2020/12/17 09:47:01;;;;;;;3.22;1.83;;;5.90;88.60;;;;;;4999120;28;20080;-90
2020/12/17 09:49:33;;;;;;;2.42;1.95;;;5.90;88.40;;;;;;5016427;28;20092;-89
2020/12/17 09:52:05;;;;;;;2.53;2.08;;;6.00;88.30;;;;;;5009771;28;20449;-93
2020/12/17 09:54:32;;;;;;;2.40;1.98;;;5.90;88.10;;;;;;5035835;28;20092;-92
2020/12/17 09:57:09;;;;;;;2.88;1.83;;;5.90;88.10;;;;;;5028675;28;20029;-92
2020/12/17 09:59:34;;;;;;;2.45;1.80;;;5.90;88.00;;;;;;5015738;28;20052;-93
2020/12/17 10:02:02;;;;;;;3.42;1.92;;;5.90;88.00;;;;;;5015137;28;20033;-93
2020/12/17 10:04:28;;;;;;;1.80;1.67;;;5.90;88.10;;;;;;5032093;28;20069;-95
2020/12/17 10:06:55;;;;;;;3.97;1.55;;;6.00;88.00;;;;;;5031135;28;20033;-95
2020/12/17 10:09:21;;;;;;;4.40;2.00;;;6.00;87.80;;;;;;5017482;28;20067;-95
2020/12/17 10:11:52;;;;;;;4.30;1.73;;;6.00;87.80;;;;;;5019344;28;20081;-96
2020/12/17 10:14:19;;;;;;;2.90;2.03;;;6.00;87.80;;;;;;5008495;28;20056;-85
2020/12/17 10:16:45;;;;;;;2.95;1.83;;;6.00;87.80;;;;;;5016672;28;20042;-91
2020/12/17 10:19:12;;;;;;;4.50;1.88;;;6.00;88.20;;;;;;4999565;28;20168;-90
2020/12/17 10:21:38;;;;;;;2.35;1.60;;;6.00;87.70;;;;;;5016391;28;20032;-88
2020/12/17 10:24:05;;;;;;;2.90;1.90;;;6.00;87.60;;;;;;5018925;28;20064;-92
2020/12/17 10:26:32;;;;;;;3.67;1.50;;;6.00;87.40;;;;;;5006057;28;20042;-91
2020/12/17 10:28:59;;;;;;;3.40;1.75;;;6.00;87.50;;;;;;5001866;28;20038;-91
2020/12/17 10:31:26;;;;;;;2.85;1.52;;;6.00;87.20;;;;;;5007334;28;20086;-88
2020/12/17 10:33:53;;;;;;;2.47;1.40;;;6.00;87.30;;;;;;4984569;28;20060;-91
2020/12/17 10:36:18;;;;;;;2.55;1.33;;;6.00;87.10;;;;;;5019382;28;20054;-93
2020/12/17 10:38:44;;;;;;;2.10;1.60;;;6.00;87.20;;;;;;5022049;28;20037;-93
2020/12/17 10:41:11;;;;;;;2.15;1.58;;;6.10;87.10;;;;;;5020564;28;20042;-92
2020/12/17 10:43:37;;;;;;;2.33;1.60;;;6.00;87.10;;;;;;5019693;28;20090;-90
2020/12/17 10:46:04;;;;;;;2.08;1.45;;;6.00;87.00;;;;;;5009411;28;20037;-93
2020/12/17 10:48:30;;;;;;;1.58;1.40;;;6.00;87.00;;;;;;5025780;28;20029;-93
2020/12/17 10:50:55;;;;;;;2.53;1.30;;;6.10;87.00;;;;;;5024830;28;20128;-93
2020/12/17 10:53:21;;;;;;;2.53;1.55;;;6.10;87.00;;;;;;5000049;28;20044;-93
2020/12/17 10:55:47;;;;;;;2.80;1.67;;;6.10;86.90;;;;;;5016592;28;20045;-92
2020/12/17 10:58:15;;;;;;;2.92;1.40;;;6.10;86.80;;;;;;5003926;28;20041;-92
2020/12/17 11:00:41;;;;;;;3.83;1.85;;;6.10;86.90;;;;;;5031017;28;20049;-92
2020/12/17 11:03:07;;;;;;;2.55;1.80;;;6.10;86.90;;;;;;4999839;28;20091;-89
2020/12/17 11:05:36;;;;;;;3.33;2.10;;;6.10;86.80;;;;;;5033795;28;20013;-92
2020/12/17 11:08:03;;;;;;;3.25;1.90;;;6.10;86.80;;;;;;5018186;28;20142;-94
2020/12/17 11:10:30;;;;;;;2.13;1.67;;;6.10;86.90;;;;;;5027308;28;20096;-90
2020/12/17 11:12:56;;;;;;;2.00;1.50;;;6.10;86.90;;;;;;5007008;28;20124;-91
2020/12/17 11:15:22;;;;;;;2.08;1.80;;;6.10;87.20;;;;;;5019206;28;20072;-90
2020/12/17 11:17:48;;;;;;;2.10;1.52;;;6.10;87.10;;;;;;4998915;28;20048;-91
2020/12/17 11:20:16;;;;;;;2.95;1.60;;;6.10;87.10;;;;;;5015518;28;20512;-92
2020/12/17 11:22:42;;;;;;;2.78;1.70;;;6.10;87.20;;;;;;5016074;28;20412;-91
2020/12/17 11:25:08;;;;;;;5.05;1.77;;;6.10;87.20;;;;;;5025521;28;20034;-95
2020/12/17 11:27:34;;;;;;;3.40;1.60;;;6.10;87.00;;;;;;5024626;28;20468;-91
2020/12/17 11:30:00;;;;;;;2.33;1.70;;;6.10;87.20;;;;;;5019895;28;20034;-88
2020/12/17 11:32:26;;;;;;;2.33;1.42;;;6.10;87.40;;;;;;5017130;28;20583;-89
2020/12/17 11:34:51;;;;;;;2.63;1.50;;;6.10;87.40;;;;;;5016156;28;20100;-88
2020/12/17 11:37:19;;;;;;;3.63;1.63;;;6.10;87.30;;;;;;5000328;28;20149;-91
2020/12/17 11:39:45;;;;;;;3.15;1.90;;;6.10;87.30;;;;;;5020178;28;20128;-94
2020/12/17 11:42:11;;;;;;;2.65;1.83;;;6.10;87.30;;;;;;5025649;28;20039;-94
2020/12/17 11:44:37;;;;;;;1.80;1.60;;;6.10;87.30;;;;;;5024437;28;20390;-91
2020/12/17 11:47:03;;;;;;;2.63;1.70;;;6.00;87.30;;;;;;5016305;28;20033;-91
2020/12/17 11:49:31;;;;;;;2.03;1.45;;;6.00;87.50;;;;;;5001562;28;20037;-91
2020/12/17 11:51:57;;;;;;;2.53;1.45;;;6.00;87.50;;;;;;5014938;28;20038;-92
2020/12/17 11:54:23;;;;;;;2.03;1.40;;;6.00;87.60;;;;;;5015169;28;20037;-83
2020/12/17 11:56:53;;;;;;;4.47;1.92;;;6.00;87.70;;;;;;4997186;28;20061;-87
2020/12/17 11:59:21;;;;;;;2.95;1.73;;;6.00;87.70;;;;;;5016446;28;20520;-86
2020/12/17 12:01:47;;;;;;;3.63;1.90;;;6.00;87.70;;;;;;5014298;28;20037;-87
2020/12/17 12:04:13;;;;;;;2.97;1.77;;;6.00;87.80;;;;;;5014184;28;20564;-88
2020/12/17 12:06:39;;;;;;;1.88;1.35;;;6.00;87.80;;;;;;5014164;28;20516;-90
2020/12/17 12:09:07;;;;;;;1.60;1.42;;;6.00;87.80;;;;;;5015786;28;20118;-87
2020/12/17 12:11:34;;;;;;;3.33;1.80;;;6.00;87.80;;;;;;5014171;28;20034;-90
2020/12/17 12:14:00;;;;;;;2.70;1.60;;;6.00;87.90;;;;;;5014857;28;20037;-88
2020/12/17 12:16:26;;;;;;;2.83;1.70;;;6.00;87.90;;;;;;5019944;28;20042;-88
2020/12/17 12:18:51;;;;;;;2.28;1.50;;;6.00;88.00;;;;;;4997264;28;20053;-88
2020/12/17 12:21:18;;;;;;;5.03;1.83;;;5.90;88.00;;;;;;5034415;28;20038;-90
2020/12/17 12:23:44;;;;;;;2.53;1.58;;;5.90;87.90;;;;;;5023442;28;20037;-91
2020/12/17 12:26:11;;;;;;;2.05;1.40;;;5.90;87.90;;;;;;5025762;28;20041;-91
2020/12/17 12:28:38;;;;;;;1.42;1.30;;;5.90;88.30;;;;;;5005970;28;20049;-92
2020/12/17 12:31:05;;;;;;;1.55;1.45;;;5.90;88.00;;;;;;5029026;28;20049;-93
2020/12/17 12:33:31;;;;;;;2.08;1.40;;;5.90;88.00;;;;;;5024718;28;20046;-92
2020/12/17 12:35:57;;;;;;;1.73;1.60;;;5.90;88.10;;;;;;5024142;28;20128;-92
2020/12/17 12:38:24;;;;;;;3.15;1.77;;;5.90;88.10;;;;;;5024538;28;20048;-93
2020/12/17 12:40:50;;;;;;;3.22;1.48;;;5.90;88.10;;;;;;5005848;28;20044;-92
2020/12/17 12:43:16;;;;;;;1.70;1.30;;;5.90;88.00;;;;;;5023063;28;20094;-92
2020/12/17 12:45:43;;;;;;;1.85;1.38;;;5.90;88.10;;;;;;5025827;28;20036;-92
2020/12/17 12:48:10;;;;;;;2.85;1.60;;;5.90;88.20;;;;;;5031350;28;20033;-88
2020/12/17 12:50:37;;;;;;;4.40;1.58;;;5.90;88.20;;;;;;5007312;28;20057;-92
2020/12/17 12:53:04;;;;;;;1.58;1.23;;;5.90;88.60;;;;;;5028462;28;20034;-92
2020/12/17 12:55:30;;;;;;;2.67;1.20;;;5.90;88.30;;;;;;5024284;28;20042;-91
2020/12/17 12:57:56;;;;;;;2.95;1.45;;;5.90;88.30;;;;;;5021371;28;20052;-89
2020/12/17 13:00:23;;;;;;;3.22;1.70;;;5.90;88.40;;;;;;5020142;28;20034;-90
2020/12/17 13:02:49;;;;;;;2.05;1.50;;;5.90;88.40;;;;;;5018897;28;20042;-88
2020/12/17 13:05:15;;;;;;;2.00;1.33;;;5.90;88.70;;;;;;5018531;28;20050;-89